sensor_id;sensor_type;location;lat;lon;timestamp;temperature;humidity
19058;DHT22;9662;53.612;9.914;2022-07-23T00:46:03;18.70;99.90
19058;DHT22;9662;53.612;9.914;2022-07-23T00:48:30;18.70;99.90
19058;DHT22;9662;53.612;9.914;2022-07-23T00:50:57;18.90;99.90
19058;DHT22;9662;53.612;9.914;2022-07-23T00:53:24;18.70;99.90
19058;DHT22;9662;53.612;9.914;2022-07-23T00:55:51;18.60;99.90
19058;DHT22;9662;53.612;9.914;2022-07-23T00:58:19;18.70;99.90
19058;DHT22;9662;53.612;9.914;2022-07-23T01:00:46;18.90;99.90
19058;DHT22;9662;53.612;9.914;2022-07-23T01:03:14;18.70;99.90
19058;DHT22;9662;53.612;9.914;2022-07-23T01:05:41;18.60;99.90
19058;DHT22;9662;53.612;9.914;2022-07-23T01:08:07;18.40;99.90
19058;DHT22;9662;53.612;9.914;2022-07-23T01:10:34;18.60;99.90
19058;DHT22;9662;53.612;9.914;2022-07-23T01:13:03;18.60;99.90
19058;DHT22;9662;53.612;9.914;2022-07-23T01:15:30;18.60;99.90
19058;DHT22;9662;53.612;9.914;2022-07-23T01:17:57;18.60;99.90
19058;DHT22;9662;53.612;9.914;2022-07-23T01:20:26;18.70;99.90
19058;DHT22;9662;53.612;9.914;2022-07-23T01:22:54;18.70;99.90
19058;DHT22;9662;53.612;9.914;2022-07-23T01:25:21;18.70;99.90
19058;DHT22;9662;53.612;9.914;2022-07-23T01:27:48;18.60;99.90
19058;DHT22;9662;53.612;9.914;2022-07-23T01:30:15;18.60;99.90
19058;DHT22;9662;53.612;9.914;2022-07-23T01:32:42;18.60;99.90
19058;DHT22;9662;53.612;9.914;2022-07-23T01:35:09;18.50;99.90
19058;DHT22;9662;53.612;9.914;2022-07-23T01:37:36;18.50;99.90
19058;DHT22;9662;53.612;9.914;2022-07-23T01:40:06;18.70;99.90
19058;DHT22;9662;53.612;9.914;2022-07-23T01:42:33;18.70;99.90
19058;DHT22;9662;53.612;9.914;2022-07-23T01:45:00;18.90;99.90
19058;DHT22;9662;53.612;9.914;2022-07-23T01:47:27;18.80;99.90
19058;DHT22;9662;53.612;9.914;2022-07-23T01:49:53;18.90;99.90
19058;DHT22;9662;53.612;9.914;2022-07-23T01:52:20;19.00;99.90
19058;DHT22;9662;53.612;9.914;2022-07-23T01:54:47;18.80;99.90
19058;DHT22;9662;53.612;9.914;2022-07-23T01:57:15;18.90;99.90
19058;DHT22;9662;53.612;9.914;2022-07-23T01:59:42;18.60;99.90
19058;DHT22;9662;53.612;9.914;2022-07-23T02:02:09;18.70;99.90
19058;DHT22;9662;53.612;9.914;2022-07-23T02:04:35;18.70;99.90
19058;DHT22;9662;53.612;9.914;2022-07-23T02:07:03;18.80;99.90
19058;DHT22;9662;53.612;9.914;2022-07-23T02:09:30;18.80;99.90
19058;DHT22;9662;53.612;9.914;2022-07-23T02:11:57;18.90;99.90
19058;DHT22;9662;53.612;9.914;2022-07-23T02:14:26;18.70;99.90
19058;DHT22;9662;53.612;9.914;2022-07-23T02:16:53;18.80;99.90
19058;DHT22;9662;53.612;9.914;2022-07-23T02:19:19;18.70;99.90
19058;DHT22;9662;53.612;9.914;2022-07-23T02:21:46;18.70;99.90
19058;DHT22;9662;53.612;9.914;2022-07-23T02:24:14;18.70;99.90
19058;DHT22;9662;53.612;9.914;2022-07-23T02:26:41;18.60;99.90
19058;DHT22;9662;53.612;9.914;2022-07-23T02:29:08;18.60;99.90
19058;DHT22;9662;53.612;9.914;2022-07-23T02:31:36;18.60;99.90
19058;DHT22;9662;53.612;9.914;2022-07-23T02:34:03;18.50;99.90
19058;DHT22;9662;53.612;9.914;2022-07-23T02:36:29;18.50;99.90
19058;DHT22;9662;53.612;9.914;2022-07-23T02:38:56;18.40;99.90
19058;DHT22;9662;53.612;9.914;2022-07-23T02:41:23;18.40;99.90
19058;DHT22;9662;53.612;9.914;2022-07-23T02:43:50;18.40;99.90
19058;DHT22;9662;53.612;9.914;2022-07-23T02:46:17;18.30;99.90
19058;DHT22;9662;53.612;9.914;2022-07-23T02:48:45;18.30;99.90
19058;DHT22;9662;53.612;9.914;2022-07-23T02:51:12;18.40;99.90
19058;DHT22;9662;53.612;9.914;2022-07-23T02:53:38;18.30;99.90
19058;DHT22;9662;53.612;9.914;2022-07-23T02:56:05;18.40;99.90
19058;DHT22;9662;53.612;9.914;2022-07-23T02:58:32;18.40;99.90
19058;DHT22;9662;53.612;9.914;2022-07-23T03:00:59;18.30;99.90
19058;DHT22;9662;53.612;9.914;2022-07-23T03:03:26;18.50;99.90
19058;DHT22;9662;53.612;9.914;2022-07-23T03:05:54;18.60;99.90
19058;DHT22;9662;53.612;9.914;2022-07-23T03:08:21;18.60;99.90
19058;DHT22;9662;53.612;9.914;2022-07-23T03:10:48;18.50;99.90
19058;DHT22;9662;53.612;9.914;2022-07-23T03:13:15;18.60;99.90
19058;DHT22;9662;53.612;9.914;2022-07-23T03:15:42;18.70;99.90
19058;DHT22;9662;53.612;9.914;2022-07-23T03:18:08;18.60;99.90
19058;DHT22;9662;53.612;9.914;2022-07-23T03:20:35;18.60;99.90
19058;DHT22;9662;53.612;9.914;2022-07-23T03:23:03;18.60;99.90
19058;DHT22;9662;53.612;9.914;2022-07-23T03:25:30;18.60;99.90
19058;DHT22;9662;53.612;9.914;2022-07-23T03:27:57;18.60;99.90
19058;DHT22;9662;53.612;9.914;2022-07-23T03:30:23;18.60;99.90
19058;DHT22;9662;53.612;9.914;2022-07-23T03:32:50;18.60;99.90
19058;DHT22;9662;53.612;9.914;2022-07-23T03:35:17;18.70;99.90
19058;DHT22;9662;53.612;9.914;2022-07-23T03:37:43;18.50;99.90
19058;DHT22;9662;53.612;9.914;2022-07-23T03:40:12;18.50;99.90
19058;DHT22;9662;53.612;9.914;2022-07-23T03:42:39;18.20;99.90
19058;DHT22;9662;53.612;9.914;2022-07-23T03:45:08;18.20;99.90
19058;DHT22;9662;53.612;9.914;2022-07-23T03:47:35;18.40;99.90
19058;DHT22;9662;53.612;9.914;2022-07-23T03:50:02;18.40;99.90
19058;DHT22;9662;53.612;9.914;2022-07-23T03:52:29;18.50;99.90
19058;DHT22;9662;53.612;9.914;2022-07-23T03:54:55;18.40;99.90
19058;DHT22;9662;53.612;9.914;2022-07-23T03:57:23;18.30;99.90
19058;DHT22;9662;53.612;9.914;2022-07-23T03:59:51;18.50;99.90
19058;DHT22;9662;53.612;9.914;2022-07-23T04:02:17;18.50;99.90
19058;DHT22;9662;53.612;9.914;2022-07-23T04:04:44;18.60;99.90
19058;DHT22;9662;53.612;9.914;2022-07-23T04:07:12;18.60;99.90
19058;DHT22;9662;53.612;9.914;2022-07-23T04:09:38;18.80;99.90
19058;DHT22;9662;53.612;9.914;2022-07-23T04:12:07;18.90;99.90
19058;DHT22;9662;53.612;9.914;2022-07-23T04:14:36;19.00;99.90
19058;DHT22;9662;53.612;9.914;2022-07-23T04:17:02;19.00;99.90
19058;DHT22;9662;53.612;9.914;2022-07-23T04:19:29;19.00;99.90
19058;DHT22;9662;53.612;9.914;2022-07-23T04:21:56;19.00;99.90
19058;DHT22;9662;53.612;9.914;2022-07-23T04:24:23;19.10;99.90
19058;DHT22;9662;53.612;9.914;2022-07-23T04:26:50;19.10;99.90
19058;DHT22;9662;53.612;9.914;2022-07-23T04:29:17;19.10;99.90
19058;DHT22;9662;53.612;9.914;2022-07-23T04:31:45;19.20;99.90
19058;DHT22;9662;53.612;9.914;2022-07-23T04:34:11;18.90;99.90
19058;DHT22;9662;53.612;9.914;2022-07-23T04:36:38;18.80;99.90
19058;DHT22;9662;53.612;9.914;2022-07-23T04:39:05;18.90;99.90
19058;DHT22;9662;53.612;9.914;2022-07-23T04:41:32;18.50;99.90
19058;DHT22;9662;53.612;9.914;2022-07-23T04:43:59;18.60;99.90
19058;DHT22;9662;53.612;9.914;2022-07-23T04:46:26;18.40;99.90
19058;DHT22;9662;53.612;9.914;2022-07-23T04:48:54;18.30;99.90
19058;DHT22;9662;53.612;9.914;2022-07-23T04:51:21;18.10;99.90
19058;DHT22;9662;53.612;9.914;2022-07-23T04:53:48;18.30;99.90
19058;DHT22;9662;53.612;9.914;2022-07-23T04:56:15;18.20;99.90
19058;DHT22;9662;53.612;9.914;2022-07-23T04:58:42;18.20;99.90
19058;DHT22;9662;53.612;9.914;2022-07-23T05:01:09;18.30;99.90
19058;DHT22;9662;53.612;9.914;2022-07-23T05:03:36;18.40;99.90
19058;DHT22;9662;53.612;9.914;2022-07-23T05:06:04;18.30;99.90
19058;DHT22;9662;53.612;9.914;2022-07-23T05:08:31;18.60;99.90
19058;DHT22;9662;53.612;9.914;2022-07-23T05:10:58;18.60;99.90
19058;DHT22;9662;53.612;9.914;2022-07-23T05:13:24;18.60;99.90
19058;DHT22;9662;53.612;9.914;2022-07-23T05:15:51;18.60;99.90
19058;DHT22;9662;53.612;9.914;2022-07-23T05:18:18;18.70;99.90
19058;DHT22;9662;53.612;9.914;2022-07-23T05:20:45;18.80;99.90
19058;DHT22;9662;53.612;9.914;2022-07-23T05:23:13;18.80;99.90
19058;DHT22;9662;53.612;9.914;2022-07-23T05:25:40;18.80;99.90
19058;DHT22;9662;53.612;9.914;2022-07-23T05:28:07;18.60;99.90
19058;DHT22;9662;53.612;9.914;2022-07-23T05:30:34;18.60;99.90
19058;DHT22;9662;53.612;9.914;2022-07-23T05:33:00;18.70;99.90
19058;DHT22;9662;53.612;9.914;2022-07-23T05:35:27;18.50;99.90
19058;DHT22;9662;53.612;9.914;2022-07-23T05:37:54;18.60;99.90
19058;DHT22;9662;53.612;9.914;2022-07-23T05:40:22;18.80;99.90
19058;DHT22;9662;53.612;9.914;2022-07-23T05:42:49;18.80;99.90
19058;DHT22;9662;53.612;9.914;2022-07-23T05:45:16;19.00;99.90
19058;DHT22;9662;53.612;9.914;2022-07-23T05:47:44;18.90;99.90
19058;DHT22;9662;53.612;9.914;2022-07-23T05:50:12;19.30;99.90
19058;DHT22;9662;53.612;9.914;2022-07-23T05:52:38;19.30;99.90
19058;DHT22;9662;53.612;9.914;2022-07-23T05:55:06;19.30;99.90
19058;DHT22;9662;53.612;9.914;2022-07-23T05:57:35;19.40;99.90
19058;DHT22;9662;53.612;9.914;2022-07-23T06:00:03;19.50;99.90
19058;DHT22;9662;53.612;9.914;2022-07-23T06:02:30;19.20;99.90
19058;DHT22;9662;53.612;9.914;2022-07-23T06:04:57;19.20;99.90
19058;DHT22;9662;53.612;9.914;2022-07-23T06:07:24;19.50;99.90
19058;DHT22;9662;53.612;9.914;2022-07-23T06:09:51;19.30;99.90
19058;DHT22;9662;53.612;9.914;2022-07-23T06:12:18;19.40;99.90
19058;DHT22;9662;53.612;9.914;2022-07-23T06:14:46;19.70;99.90
19058;DHT22;9662;53.612;9.914;2022-07-23T06:17:15;19.10;99.90
19058;DHT22;9662;53.612;9.914;2022-07-23T06:19:42;19.60;99.90
19058;DHT22;9662;53.612;9.914;2022-07-23T06:22:08;19.50;99.90
19058;DHT22;9662;53.612;9.914;2022-07-23T06:24:35;19.30;99.90
19058;DHT22;9662;53.612;9.914;2022-07-23T06:27:02;19.20;99.90
19058;DHT22;9662;53.612;9.914;2022-07-23T06:29:29;19.30;99.90
19058;DHT22;9662;53.612;9.914;2022-07-23T06:31:58;19.20;99.90
19058;DHT22;9662;53.612;9.914;2022-07-23T06:34:25;19.50;99.90
19058;DHT22;9662;53.612;9.914;2022-07-23T06:36:51;19.70;99.90
19058;DHT22;9662;53.612;9.914;2022-07-23T06:41:45;19.60;99.90
19058;DHT22;9662;53.612;9.914;2022-07-23T06:46:40;19.60;99.90
19058;DHT22;9662;53.612;9.914;2022-07-23T06:49:08;19.50;99.90
19058;DHT22;9662;53.612;9.914;2022-07-23T06:51:35;19.70;99.90
19058;DHT22;9662;53.612;9.914;2022-07-23T06:54:03;19.50;99.90
19058;DHT22;9662;53.612;9.914;2022-07-23T06:56:30;19.70;99.90
19058;DHT22;9662;53.612;9.914;2022-07-23T07:06:22;20.30;99.90
19058;DHT22;9662;53.612;9.914;2022-07-23T07:11:15;19.40;99.90
19058;DHT22;9662;53.612;9.914;2022-07-23T07:13:42;19.10;99.90
19058;DHT22;9662;53.612;9.914;2022-07-23T07:16:09;18.90;99.90
19058;DHT22;9662;53.612;9.914;2022-07-23T07:18:36;18.70;99.90
19058;DHT22;9662;53.612;9.914;2022-07-23T07:33:24;19.70;99.90
